createdAt,value
2017-10-05T00:00:45.495Z,12.60
2017-10-05T00:03:15.416Z,12.60
2017-10-05T00:05:45.120Z,12.60
2017-10-05T00:08:14.829Z,12.60
2017-10-05T00:10:44.604Z,12.60
2017-10-05T00:13:14.248Z,12.60
2017-10-05T00:15:44.774Z,12.60
2017-10-05T00:18:14.624Z,12.50
2017-10-05T00:20:44.404Z,12.50
2017-10-05T00:23:14.108Z,12.50
2017-10-05T00:25:43.818Z,12.50
2017-10-05T00:28:15.224Z,12.50
2017-10-05T00:30:45.079Z,12.60
2017-10-05T00:33:14.787Z,12.50
2017-10-05T00:35:44.703Z,12.50
2017-10-05T00:38:14.413Z,12.50
2017-10-05T00:40:45.760Z,12.50
2017-10-05T00:43:15.676Z,12.50
2017-10-05T00:45:45.388Z,12.50
2017-10-05T00:48:15.300Z,12.50
2017-10-05T00:50:45.009Z,12.50
2017-10-05T00:53:15.335Z,12.50
2017-10-05T00:55:45.250Z,12.50
2017-10-05T00:58:15.098Z,12.50
2017-10-05T01:00:45.080Z,12.50
2017-10-05T01:03:14.989Z,12.50
2017-10-05T01:05:44.702Z,12.60
2017-10-05T01:08:14.617Z,12.50
2017-10-05T01:10:44.526Z,12.50
2017-10-05T01:13:14.239Z,12.50
2017-10-05T01:15:43.951Z,12.50
2017-10-05T01:18:13.660Z,12.50
2017-10-05T01:20:43.784Z,12.50
2017-10-05T01:23:13.630Z,12.50
2017-10-05T01:25:43.404Z,12.50
2017-10-05T01:28:13.520Z,12.50
2017-10-05T01:30:43.845Z,12.50
2017-10-05T01:33:13.755Z,12.50
2017-10-05T01:35:43.467Z,12.50
2017-10-05T01:38:13.175Z,12.50
2017-10-05T01:40:43.092Z,12.40
2017-10-05T01:43:12.734Z,12.40
2017-10-05T01:45:42.510Z,12.50
2017-10-05T01:48:12.225Z,12.50
2017-10-05T01:50:42.135Z,12.40
2017-10-05T01:53:12.251Z,12.40
2017-10-05T01:55:41.961Z,12.40
2017-10-05T01:58:11.674Z,12.40
2017-10-05T02:00:42.200Z,12.40
2017-10-05T02:03:12.116Z,12.40
2017-10-05T02:05:42.441Z,12.40
2017-10-05T02:08:12.965Z,12.50
2017-10-05T02:10:42.680Z,12.40
2017-10-05T02:13:12.599Z,12.40
2017-10-05T02:15:42.299Z,12.40
2017-10-05T02:18:12.008Z,12.40
2017-10-05T02:20:41.922Z,12.40
2017-10-05T02:23:12.251Z,12.40
2017-10-05T02:25:42.576Z,12.40
2017-10-05T02:28:12.484Z,12.40
2017-10-05T02:30:42.195Z,12.40
2017-10-05T02:33:12.108Z,12.40
2017-10-05T02:35:41.820Z,12.40
2017-10-05T02:38:11.491Z,12.40
2017-10-05T02:40:41.441Z,12.40
2017-10-05T02:43:11.151Z,12.40
2017-10-05T02:45:40.859Z,12.40
2017-10-05T02:48:11.205Z,12.40
2017-10-05T02:50:41.097Z,12.30
2017-10-05T02:53:11.011Z,12.30
2017-10-05T02:55:40.938Z,12.30
2017-10-05T02:58:10.636Z,12.30
2017-10-05T03:00:40.347Z,12.30
2017-10-05T03:03:10.469Z,12.30
2017-10-05T03:05:40.176Z,12.30
2017-10-05T03:08:09.883Z,12.30
2017-10-05T03:10:41.435Z,12.20
2017-10-05T03:13:11.560Z,12.20
2017-10-05T03:15:41.264Z,12.20
2017-10-05T03:18:10.976Z,12.20
2017-10-05T03:20:42.121Z,12.20
2017-10-05T03:23:12.645Z,12.20
2017-10-05T03:25:43.790Z,12.20
2017-10-05T03:28:15.139Z,12.20
2017-10-05T03:30:44.846Z,12.20
2017-10-05T03:33:14.661Z,12.20
2017-10-05T03:35:44.776Z,12.20
2017-10-05T03:38:14.692Z,12.20
2017-10-05T03:40:44.609Z,12.10
2017-10-05T03:43:14.931Z,12.10
2017-10-05T03:45:45.050Z,12.10
2017-10-05T03:48:14.763Z,12.10
2017-10-05T03:50:44.469Z,12.10
2017-10-05T03:53:14.185Z,12.10
2017-10-05T03:55:43.828Z,12.10
2017-10-05T03:58:13.597Z,12.10
2017-10-05T04:00:43.714Z,12.00
2017-10-05T04:03:13.425Z,12.10
2017-10-05T04:05:43.751Z,12.10
2017-10-05T04:08:13.870Z,12.10
2017-10-05T04:10:43.586Z,12.10
2017-10-05T04:13:13.698Z,12.10
2017-10-05T04:15:43.609Z,12.10
2017-10-05T04:18:13.320Z,12.10
2017-10-05T04:20:43.792Z,12.10
2017-10-05T04:23:13.565Z,12.00
2017-10-05T04:25:43.472Z,12.10
2017-10-05T04:28:13.180Z,12.00
2017-10-05T04:30:43.509Z,12.10
2017-10-05T04:33:14.255Z,12.10
2017-10-05T04:35:43.973Z,12.10
2017-10-05T04:38:14.283Z,12.10
2017-10-05T04:40:44.396Z,12.00
2017-10-05T04:43:14.321Z,12.00
2017-10-05T04:45:44.238Z,12.00
2017-10-05T04:48:14.153Z,12.00
2017-10-05T04:50:44.013Z,12.00
2017-10-05T04:53:13.774Z,12.00
2017-10-05T04:55:43.893Z,12.00
2017-10-05T04:58:14.423Z,12.00
2017-10-05T05:00:44.553Z,12.00
2017-10-05T05:03:14.459Z,12.00
2017-10-05T05:05:44.372Z,12.00
2017-10-05T05:08:14.084Z,12.00
2017-10-05T05:10:43.996Z,12.00
2017-10-05T05:13:13.900Z,12.00
2017-10-05T05:15:44.237Z,12.00
2017-10-05T05:18:14.145Z,12.00
2017-10-05T05:20:44.267Z,12.00
2017-10-05T05:23:14.166Z,12.00
2017-10-05T05:25:44.285Z,12.00
2017-10-05T05:28:14.827Z,12.00
2017-10-05T05:30:44.944Z,11.90
2017-10-05T05:33:14.859Z,11.90
2017-10-05T05:35:44.790Z,11.90
2017-10-05T05:38:15.082Z,11.90
2017-10-05T05:40:45.420Z,11.90
2017-10-05T05:43:15.338Z,11.90
2017-10-05T05:45:45.045Z,11.90
2017-10-05T05:48:14.951Z,11.90
2017-10-05T05:50:45.081Z,11.90
2017-10-05T05:53:15.161Z,11.90
2017-10-05T05:55:45.112Z,12.00
2017-10-05T05:58:15.200Z,12.00
2017-10-05T06:00:45.330Z,12.00
2017-10-05T06:03:15.263Z,12.00
2017-10-05T06:05:45.179Z,11.90
2017-10-05T06:08:15.096Z,11.90
2017-10-05T06:10:45.215Z,11.90
2017-10-05T06:13:15.540Z,11.90
2017-10-05T06:15:45.450Z,12.00
2017-10-05T06:18:15.496Z,11.90
2017-10-05T06:20:45.894Z,12.00
2017-10-05T06:23:15.930Z,11.90
2017-10-05T06:25:46.500Z,11.90
2017-10-05T06:28:16.463Z,11.90
2017-10-05T06:30:53.126Z,11.90
2017-10-05T06:33:23.232Z,11.90
2017-10-05T06:35:52.955Z,11.90
2017-10-05T06:38:23.034Z,11.90
2017-10-05T06:40:52.791Z,11.90
2017-10-05T06:43:22.698Z,11.90
2017-10-05T06:45:52.819Z,11.90
2017-10-05T06:48:23.550Z,11.90
2017-10-05T06:50:53.599Z,11.90
2017-10-05T06:53:23.581Z,11.90
2017-10-05T06:55:54.522Z,11.90
2017-10-05T06:58:24.643Z,11.90
2017-10-05T07:00:57.018Z,11.90
2017-10-05T07:03:27.263Z,11.90
2017-10-05T07:05:57.954Z,11.90
2017-10-05T07:08:28.808Z,11.90
2017-10-05T07:11:00.367Z,11.80
2017-10-05T07:13:30.275Z,11.90
2017-10-05T07:16:00.391Z,11.80
2017-10-05T07:18:30.715Z,11.90
2017-10-05T07:21:00.422Z,11.90
2017-10-05T07:23:30.765Z,11.80
2017-10-05T07:26:00.868Z,11.90
2017-10-05T07:28:30.917Z,11.80
2017-10-05T07:31:01.315Z,11.80
2017-10-05T07:33:31.638Z,11.80
2017-10-05T07:36:01.957Z,11.80
2017-10-05T07:38:32.895Z,11.80
2017-10-05T07:41:02.992Z,11.80
2017-10-05T07:43:33.085Z,11.80
2017-10-05T07:46:03.248Z,11.80
2017-10-05T07:48:33.989Z,11.80
2017-10-05T07:51:04.280Z,11.80
2017-10-05T07:53:34.022Z,11.80
2017-10-05T07:56:04.124Z,11.80
2017-10-05T07:58:34.672Z,11.80
2017-10-05T08:01:04.790Z,11.80
2017-10-05T08:03:35.051Z,11.80
2017-10-05T08:06:05.112Z,11.80
2017-10-05T08:08:35.558Z,11.80
2017-10-05T08:11:06.255Z,11.80
2017-10-05T08:13:39.076Z,11.80
2017-10-05T08:16:09.401Z,11.80
2017-10-05T08:18:39.309Z,11.80
2017-10-05T08:21:09.430Z,11.80
2017-10-05T08:23:41.394Z,11.80
2017-10-05T08:26:15.507Z,11.80
2017-10-05T08:28:45.720Z,11.80
2017-10-05T08:31:15.834Z,11.80
2017-10-05T08:33:45.961Z,11.80
2017-10-05T08:36:16.301Z,11.80
2017-10-05T08:38:46.785Z,11.80
2017-10-05T08:41:17.138Z,11.80
2017-10-05T08:43:47.464Z,11.70
2017-10-05T08:46:17.580Z,11.80
2017-10-05T08:48:47.905Z,11.70
2017-10-05T08:51:17.817Z,11.70
2017-10-05T08:53:48.026Z,11.70
2017-10-05T08:56:19.055Z,11.70
2017-10-05T08:58:49.132Z,11.70
2017-10-05T09:01:19.206Z,11.70
2017-10-05T09:04:01.856Z,11.70
2017-10-05T09:06:45.834Z,11.70
2017-10-05T09:09:17.391Z,11.70
2017-10-05T09:11:47.547Z,11.70
2017-10-05T09:14:17.884Z,11.70
2017-10-05T09:16:48.192Z,11.70
2017-10-05T09:19:19.458Z,11.70
2017-10-05T09:21:49.463Z,11.70
2017-10-05T09:24:19.441Z,11.60
2017-10-05T09:26:50.589Z,11.60
2017-10-05T09:29:20.426Z,11.60
2017-10-05T09:31:51.168Z,11.60
2017-10-05T09:34:22.099Z,11.60
2017-10-05T09:36:52.016Z,11.60
2017-10-05T09:39:21.908Z,11.60
2017-10-05T09:41:51.829Z,11.60
2017-10-05T09:44:21.760Z,11.60
2017-10-05T09:46:51.875Z,11.60
2017-10-05T09:49:21.791Z,11.60
2017-10-05T09:51:51.907Z,11.60
2017-10-05T09:54:23.052Z,11.60
2017-10-05T09:56:52.964Z,11.60
2017-10-05T09:59:23.087Z,11.60
2017-10-05T10:01:53.491Z,11.60
2017-10-05T10:04:23.529Z,11.60
2017-10-05T10:06:53.683Z,11.50
2017-10-05T10:09:24.001Z,11.60
2017-10-05T10:11:54.332Z,11.50
2017-10-05T10:14:24.415Z,11.50
2017-10-05T10:16:55.774Z,11.50
2017-10-05T10:19:25.892Z,11.50
2017-10-05T10:21:55.881Z,11.40
2017-10-05T10:24:25.920Z,11.40
2017-10-05T10:26:55.966Z,11.40
2017-10-05T10:29:25.921Z,11.40
2017-10-05T10:31:57.091Z,11.40
2017-10-05T10:34:27.622Z,11.40
2017-10-05T10:36:58.557Z,11.40
2017-10-05T10:39:29.084Z,11.40
2017-10-05T10:42:00.026Z,11.30
2017-10-05T10:44:30.347Z,11.30
2017-10-05T10:47:00.437Z,11.30
2017-10-05T10:49:30.176Z,11.30
2017-10-05T10:52:00.095Z,11.30
2017-10-05T10:54:30.005Z,11.30
2017-10-05T10:57:00.739Z,11.30
2017-10-05T10:59:31.152Z,11.30
2017-10-05T11:02:01.833Z,11.30
2017-10-05T11:04:31.912Z,11.30
2017-10-05T11:07:01.978Z,11.30
2017-10-05T11:09:31.748Z,11.30
2017-10-05T11:12:01.867Z,11.30
2017-10-05T11:14:31.970Z,11.30
2017-10-05T11:17:01.895Z,11.30
2017-10-05T11:19:32.424Z,11.30
2017-10-05T11:22:02.553Z,11.30
2017-10-05T11:24:32.580Z,11.30
2017-10-05T11:27:02.372Z,11.30
2017-10-05T11:29:32.696Z,11.30
2017-10-05T11:32:03.210Z,11.30
2017-10-05T11:34:33.342Z,11.30
2017-10-05T11:37:04.475Z,11.30
2017-10-05T11:39:35.016Z,11.30
2017-10-05T11:42:04.726Z,11.30
2017-10-05T11:44:34.850Z,11.30
2017-10-05T11:47:11.050Z,11.30
2017-10-05T11:49:42.585Z,11.30
2017-10-05T11:52:13.781Z,11.30
2017-10-05T11:54:46.676Z,11.40
2017-10-05T11:57:21.289Z,11.30
2017-10-05T11:59:55.244Z,11.40
2017-10-05T12:02:28.949Z,11.40
2017-10-05T12:05:02.024Z,11.40
2017-10-05T12:07:34.887Z,11.40
2017-10-05T12:10:08.741Z,11.40
2017-10-05T12:12:42.113Z,11.40
2017-10-05T12:15:13.756Z,11.40
2017-10-05T12:30:50.639Z,11.50
2017-10-05T12:33:33.112Z,11.60
2017-10-05T12:36:12.861Z,11.70
2017-10-05T12:38:51.442Z,11.70
2017-10-05T12:41:29.439Z,11.80
2017-10-05T12:44:07.828Z,11.80
2017-10-05T12:46:47.549Z,11.80
2017-10-05T12:49:25.889Z,11.90
2017-10-05T12:52:04.146Z,11.90
2017-10-05T12:54:42.865Z,11.90
2017-10-05T12:57:36.424Z,11.90
2017-10-05T13:00:16.319Z,11.90
2017-10-05T13:02:55.268Z,11.90
2017-10-05T13:05:34.389Z,11.90
2017-10-05T13:08:12.932Z,12.00
2017-10-05T13:10:50.811Z,12.00
2017-10-05T13:13:29.119Z,12.00
2017-10-05T13:16:07.208Z,12.10
2017-10-05T13:18:45.571Z,12.10
2017-10-05T13:21:26.135Z,12.10
2017-10-05T13:24:03.129Z,12.10
2017-10-05T13:26:41.461Z,12.10
2017-10-05T13:29:20.521Z,12.10
2017-10-05T13:32:00.933Z,12.10
2017-10-05T13:34:40.208Z,12.10
2017-10-05T13:37:19.491Z,12.10
2017-10-05T13:39:59.060Z,12.10
2017-10-05T13:42:36.909Z,12.20
2017-10-05T13:45:15.235Z,12.20
2017-10-05T13:47:55.936Z,12.20
2017-10-05T13:50:35.742Z,12.20
2017-10-05T13:53:15.281Z,12.20
2017-10-05T13:55:54.316Z,12.20
2017-10-05T13:58:32.713Z,12.20
2017-10-05T14:01:11.313Z,12.20
2017-10-05T14:03:50.218Z,12.20
2017-10-05T14:06:29.708Z,12.20
2017-10-05T14:09:11.790Z,12.20
2017-10-05T14:11:53.452Z,12.20
2017-10-05T14:14:34.525Z,12.40
2017-10-05T14:17:13.137Z,12.60
2017-10-05T14:19:54.964Z,12.80
2017-10-05T14:39:29.968Z,13.60
2017-10-05T14:42:06.862Z,13.60
2017-10-05T14:44:45.184Z,13.70
2017-10-05T14:47:23.052Z,13.60
2017-10-05T14:49:59.127Z,13.60
2017-10-05T14:52:36.077Z,13.70
2017-10-05T14:55:14.429Z,13.70
2017-10-05T14:57:51.297Z,13.60
2017-10-05T15:00:28.365Z,13.70
2017-10-05T15:03:04.920Z,13.70
2017-10-05T15:05:41.669Z,13.70
2017-10-05T15:08:18.179Z,13.70
2017-10-05T15:10:55.168Z,13.70
2017-10-05T15:13:32.096Z,13.70
2017-10-05T15:16:11.716Z,13.70
2017-10-05T15:18:50.238Z,13.70
2017-10-05T15:22:26.473Z,13.70
2017-10-05T15:25:05.159Z,13.70
2017-10-05T15:27:45.832Z,13.70
2017-10-05T15:30:27.668Z,13.60
2017-10-05T15:33:05.239Z,13.60
2017-10-05T15:35:42.941Z,13.50
2017-10-05T15:38:21.415Z,13.50
2017-10-05T15:40:59.637Z,13.50
2017-10-05T15:43:38.739Z,13.50
2017-10-05T15:46:15.643Z,13.50
2017-10-05T15:48:53.583Z,13.60
2017-10-05T15:51:29.926Z,13.50
2017-10-05T15:54:07.897Z,13.50
2017-10-05T15:56:44.883Z,13.40
2017-10-05T15:59:21.731Z,13.40
2017-10-05T16:01:58.577Z,13.40
2017-10-05T16:04:35.556Z,13.30
2017-10-05T16:07:13.201Z,13.30
2017-10-05T16:09:49.292Z,13.30
2017-10-05T16:12:26.703Z,13.30
2017-10-05T16:15:03.724Z,13.30
2017-10-05T16:17:39.808Z,13.20
2017-10-05T16:20:16.307Z,13.20
2017-10-05T16:22:54.438Z,13.20
2017-10-05T16:25:31.286Z,13.20
2017-10-05T16:28:09.412Z,13.20
2017-10-05T16:30:47.940Z,13.10
2017-10-05T16:33:25.123Z,13.00
2017-10-05T16:36:01.911Z,13.10
2017-10-05T16:38:38.992Z,13.10
2017-10-05T16:41:15.310Z,13.10
2017-10-05T16:53:30.203Z,12.50
2017-10-05T16:56:12.853Z,12.50
2017-10-05T16:58:56.153Z,12.60
2017-10-05T17:01:38.861Z,12.70
2017-10-05T17:04:23.130Z,12.70
2017-10-05T17:07:07.289Z,12.80
2017-10-05T17:09:51.257Z,12.80
2017-10-05T17:12:34.624Z,12.80
2017-10-05T17:15:18.260Z,12.70
2017-10-05T17:18:03.898Z,12.70
2017-10-05T17:20:47.410Z,12.70
2017-10-05T17:23:31.297Z,12.70
2017-10-05T17:26:15.014Z,12.70
2017-10-05T17:28:58.939Z,12.70
2017-10-05T17:31:42.433Z,12.70
2017-10-05T17:34:27.769Z,12.60
2017-10-05T17:37:11.323Z,12.60
2017-10-05T17:39:54.542Z,12.60
2017-10-05T17:42:37.178Z,12.60
2017-10-05T17:45:21.179Z,12.60
2017-10-05T17:48:05.076Z,12.60
2017-10-05T17:50:48.230Z,12.60
2017-10-05T17:53:32.617Z,12.60
2017-10-05T17:56:15.575Z,12.60
2017-10-05T17:58:59.366Z,12.60
2017-10-05T18:01:41.809Z,12.60
2017-10-05T18:04:25.469Z,12.50
2017-10-05T18:07:10.947Z,12.50
2017-10-05T18:09:55.137Z,12.50
2017-10-05T18:12:38.183Z,12.60
2017-10-05T18:15:21.568Z,12.50
2017-10-05T18:18:06.262Z,12.50
2017-10-05T18:20:49.701Z,12.50
2017-10-05T18:23:33.231Z,12.50
2017-10-05T18:26:16.982Z,12.50
2017-10-05T18:29:01.573Z,12.40
2017-10-05T18:31:48.302Z,12.50
2017-10-05T18:34:37.066Z,12.40
2017-10-05T18:37:23.579Z,12.40
2017-10-05T18:40:08.327Z,12.40
2017-10-05T18:42:54.405Z,12.40
2017-10-05T18:45:39.055Z,12.40
2017-10-05T18:48:23.768Z,12.40
2017-10-05T18:51:07.108Z,12.40
2017-10-05T18:53:51.677Z,12.40
2017-10-05T18:56:36.317Z,12.40
2017-10-05T18:59:21.439Z,12.40
2017-10-05T19:02:05.145Z,12.40
2017-10-05T19:04:50.351Z,12.40
2017-10-05T19:07:33.478Z,12.40
2017-10-05T19:10:16.722Z,12.30
2017-10-05T19:13:01.553Z,12.30
2017-10-05T19:15:46.185Z,12.30
2017-10-05T19:18:28.991Z,12.30
2017-10-05T19:21:11.851Z,12.30
2017-10-05T19:23:55.749Z,12.30
2017-10-05T19:26:40.537Z,12.30
2017-10-05T19:29:25.152Z,12.30
2017-10-05T19:32:08.846Z,12.30
2017-10-05T19:34:51.859Z,12.30
2017-10-05T19:37:34.767Z,12.30
2017-10-05T19:40:17.898Z,12.20
2017-10-05T19:43:01.341Z,12.20
2017-10-05T19:45:44.571Z,12.20
2017-10-05T19:48:28.538Z,12.20
2017-10-05T19:51:12.003Z,12.20
2017-10-05T19:53:55.266Z,12.20
2017-10-05T19:56:39.079Z,12.20
2017-10-05T19:59:22.251Z,12.20
2017-10-05T20:02:05.124Z,12.20
2017-10-05T20:04:48.178Z,12.20
2017-10-05T20:07:31.976Z,12.20
2017-10-05T20:10:14.713Z,12.20
2017-10-05T20:12:58.076Z,12.20
2017-10-05T20:15:41.363Z,12.20
2017-10-05T20:18:25.164Z,12.20
2017-10-05T20:21:08.206Z,12.10
2017-10-05T20:23:52.484Z,12.10
2017-10-05T20:33:13.496Z,11.80
2017-10-05T20:35:44.718Z,11.80
2017-10-05T20:38:14.825Z,11.70
2017-10-05T20:40:44.989Z,11.80
2017-10-05T20:43:16.910Z,11.90
2017-10-05T20:45:47.277Z,11.90
2017-10-05T20:48:17.567Z,11.90
2017-10-05T20:50:47.877Z,12.00
2017-10-05T20:53:18.027Z,12.00
2017-10-05T20:55:47.988Z,12.00
2017-10-05T20:58:18.121Z,12.00
2017-10-05T21:00:48.571Z,12.00
2017-10-05T21:03:18.946Z,12.00
2017-10-05T21:05:49.508Z,12.00
2017-10-05T21:08:19.690Z,12.00
2017-10-05T21:10:50.565Z,12.00
2017-10-05T21:13:21.340Z,12.00
2017-10-05T21:15:51.286Z,12.00
2017-10-05T21:18:21.657Z,12.00
2017-10-05T21:20:52.265Z,12.00
2017-10-05T21:23:22.375Z,12.00
2017-10-05T21:25:52.716Z,12.00
2017-10-05T21:28:22.958Z,12.00
2017-10-05T21:30:53.153Z,12.00
2017-10-05T21:33:23.427Z,11.90
2017-10-05T21:35:53.546Z,12.00
2017-10-05T21:38:23.673Z,12.00
2017-10-05T21:40:54.610Z,11.90
2017-10-05T21:43:24.818Z,11.90
2017-10-05T21:45:54.823Z,12.00
2017-10-05T21:48:25.198Z,12.00
2017-10-05T21:50:55.739Z,12.00
2017-10-05T21:53:25.831Z,12.00
2017-10-05T21:55:55.674Z,12.00
2017-10-05T21:58:27.361Z,12.00
2017-10-05T22:00:58.057Z,12.00
2017-10-05T22:03:28.212Z,12.00
2017-10-05T22:05:59.123Z,11.90
2017-10-05T22:08:29.561Z,11.90
2017-10-05T22:10:59.904Z,11.90
2017-10-05T22:13:32.223Z,11.90
2017-10-05T22:16:03.616Z,11.90
2017-10-05T22:18:38.976Z,11.90
2017-10-05T22:21:20.146Z,11.90
2017-10-05T22:23:56.045Z,11.90
2017-10-05T22:29:08.906Z,11.90
2017-10-05T22:31:39.142Z,11.90
2017-10-05T22:34:09.658Z,11.90
2017-10-05T22:36:42.012Z,11.90
2017-10-05T22:39:15.556Z,11.90
2017-10-05T22:41:52.429Z,11.90
2017-10-05T22:44:25.725Z,11.90
2017-10-05T22:46:59.434Z,11.90
2017-10-05T22:49:33.273Z,11.80
2017-10-05T22:52:06.490Z,11.80
2017-10-05T22:54:41.772Z,11.80
2017-10-05T22:57:15.119Z,11.80
2017-10-05T22:59:48.156Z,11.80
2017-10-05T23:02:22.138Z,11.80
2017-10-05T23:04:55.334Z,11.80
2017-10-05T23:07:27.725Z,11.80
2017-10-05T23:10:04.071Z,11.70
2017-10-05T23:12:37.322Z,11.70
2017-10-05T23:15:09.839Z,11.70
2017-10-05T23:17:42.433Z,11.70
2017-10-05T23:20:14.777Z,11.70
2017-10-05T23:22:47.040Z,11.70
2017-10-05T23:25:19.452Z,11.70
2017-10-05T23:27:51.635Z,11.70
2017-10-05T23:30:26.476Z,11.70
2017-10-05T23:32:59.701Z,11.70
2017-10-05T23:35:33.470Z,11.70
2017-10-05T23:38:05.192Z,11.70
2017-10-05T23:40:37.754Z,11.70
2017-10-05T23:43:12.015Z,11.70
2017-10-05T23:45:43.801Z,11.70
2017-10-05T23:48:18.423Z,11.70
2017-10-05T23:50:52.032Z,11.70
2017-10-05T23:53:23.830Z,11.70
2017-10-05T23:55:57.812Z,11.60
2017-10-05T23:58:32.671Z,11.70
